createdAt,value
2023-03-08T00:02:49.865Z,23.87
2023-03-08T00:07:56.989Z,24.33
2023-03-08T00:13:04.019Z,23.00
2023-03-08T00:18:15.958Z,24.27
2023-03-08T00:23:23.605Z,23.90
2023-03-08T00:28:30.696Z,22.37
2023-03-08T00:33:38.327Z,21.40
2023-03-08T00:38:46.561Z,22.83
2023-03-08T00:43:53.837Z,22.60
2023-03-08T00:49:01.102Z,22.50
2023-03-08T00:54:07.960Z,21.70
2023-03-08T00:59:14.864Z,22.40
2023-03-08T01:04:22.552Z,22.17
2023-03-08T01:09:29.265Z,22.20
2023-03-08T01:14:36.075Z,22.60
2023-03-08T01:19:42.945Z,21.23
2023-03-08T01:24:51.361Z,22.17
2023-03-08T01:29:58.909Z,21.30
2023-03-08T01:35:06.804Z,21.67
2023-03-08T01:40:17.146Z,19.03
2023-03-08T01:46:04.222Z,22.27
2023-03-08T01:51:14.514Z,23.50
2023-03-08T01:56:22.735Z,23.70
2023-03-08T02:01:29.958Z,21.00
2023-03-08T02:06:37.485Z,22.97
2023-03-08T02:11:45.781Z,21.00
2023-03-08T02:16:52.745Z,19.20
2023-03-08T02:22:00.009Z,25.47
2023-03-08T02:27:19.692Z,20.00
2023-03-08T02:32:26.468Z,21.70
2023-03-08T02:37:34.843Z,19.60
2023-03-08T02:42:41.867Z,21.47
2023-03-08T02:47:48.585Z,18.70
2023-03-08T02:52:55.456Z,23.53
2023-03-08T02:58:02.147Z,22.47
2023-03-08T03:03:08.912Z,20.03
2023-03-08T03:08:15.737Z,18.80
2023-03-08T03:13:22.489Z,20.37
2023-03-08T03:18:29.217Z,21.00
2023-03-08T03:23:35.907Z,18.50
2023-03-08T03:28:42.875Z,20.77
2023-03-08T03:33:49.965Z,20.50
2023-03-08T03:38:57.071Z,18.73
2023-03-08T03:44:03.796Z,21.40
2023-03-08T03:49:10.659Z,16.97
2023-03-08T03:54:17.528Z,17.33
2023-03-08T03:59:26.570Z,20.40
2023-03-08T04:04:32.712Z,19.53
2023-03-08T04:09:39.682Z,23.03
2023-03-08T04:14:46.583Z,20.10
2023-03-08T04:19:53.425Z,21.90
2023-03-08T04:25:00.607Z,21.17
2023-03-08T04:30:09.901Z,19.90
2023-03-08T04:35:17.166Z,19.90
2023-03-08T04:40:24.289Z,19.03
2023-03-08T04:45:32.274Z,22.73
2023-03-08T04:50:39.736Z,21.63
2023-03-08T04:55:46.582Z,19.23
2023-03-08T05:00:53.924Z,17.87
2023-03-08T05:06:01.118Z,18.47
2023-03-08T05:11:09.506Z,19.03
2023-03-08T05:16:22.197Z,18.17
2023-03-08T05:21:29.617Z,17.60
2023-03-08T05:26:36.427Z,18.30
2023-03-08T05:31:44.945Z,17.33
2023-03-08T05:36:54.540Z,18.97
2023-03-08T05:42:01.234Z,19.53
2023-03-08T05:47:08.447Z,18.73
2023-03-08T05:52:15.219Z,18.20
2023-03-08T05:57:22.006Z,18.93
2023-03-08T06:02:31.135Z,19.83
2023-03-08T06:07:38.402Z,20.27
2023-03-08T06:12:45.192Z,20.43
2023-03-08T06:17:56.501Z,19.00
2023-03-08T06:23:03.435Z,19.20
2023-03-08T06:28:11.542Z,20.27
2023-03-08T06:33:24.332Z,17.67
2023-03-08T06:38:34.218Z,22.30
2023-03-08T06:43:41.678Z,20.30
2023-03-08T06:48:50.874Z,21.63
2023-03-08T06:53:57.865Z,20.60
2023-03-08T06:59:04.949Z,19.53
2023-03-08T07:04:12.196Z,17.80
2023-03-08T07:09:19.210Z,20.13
2023-03-08T07:14:26.142Z,18.67
2023-03-08T07:19:34.259Z,19.43
2023-03-08T07:24:41.394Z,19.63
2023-03-08T07:29:48.648Z,19.03
2023-03-08T07:34:56.465Z,17.20
2023-03-08T07:40:04.983Z,16.77
2023-03-08T07:45:14.356Z,18.57
2023-03-08T07:50:21.997Z,21.20
2023-03-08T07:55:28.876Z,16.60
2023-03-08T08:00:35.795Z,17.93
2023-03-08T08:05:42.797Z,17.17
2023-03-08T08:10:49.618Z,17.87
2023-03-08T08:16:04.556Z,17.50
2023-03-08T08:21:15.824Z,16.47
2023-03-08T08:26:24.397Z,15.53
2023-03-08T08:31:32.752Z,19.33
2023-03-08T08:36:39.656Z,17.93
2023-03-08T08:41:46.602Z,17.70
2023-03-08T08:46:53.772Z,15.53
2023-03-08T08:52:00.969Z,17.53
2023-03-08T08:57:08.575Z,15.67
2023-03-08T09:02:15.746Z,17.77
2023-03-08T09:07:22.613Z,14.30
2023-03-08T09:12:31.329Z,16.20
2023-03-08T09:17:39.111Z,17.33
2023-03-08T09:22:46.263Z,16.43
2023-03-08T09:27:54.143Z,16.17
2023-03-08T09:33:03.071Z,15.93
2023-03-08T09:38:09.977Z,15.30
2023-03-08T09:43:21.265Z,16.93
2023-03-08T09:48:31.055Z,16.93
2023-03-08T09:53:41.676Z,17.03
2023-03-08T09:58:53.084Z,15.60
2023-03-08T10:04:15.913Z,15.53
2023-03-08T10:09:40.516Z,16.30
2023-03-08T10:14:57.620Z,16.80
2023-03-08T10:20:09.501Z,15.80
2023-03-08T10:25:31.853Z,16.60
2023-03-08T10:30:43.398Z,16.37
2023-03-08T10:36:21.415Z,16.03
2023-03-08T10:41:29.940Z,15.67
2023-03-08T10:46:37.008Z,15.43
2023-03-08T10:52:02.503Z,15.80
2023-03-08T10:57:16.648Z,15.93
2023-03-08T11:02:24.151Z,15.40
2023-03-08T11:07:34.435Z,15.17
2023-03-08T11:12:41.706Z,16.43
2023-03-08T11:17:57.997Z,17.10
2023-03-08T11:23:24.472Z,16.10
2023-03-08T11:28:58.074Z,16.10
2023-03-08T11:34:21.312Z,14.23
2023-03-08T11:40:04.213Z,15.30
2023-03-08T11:45:45.579Z,15.53
2023-03-08T11:51:17.809Z,18.23
2023-03-08T11:56:38.152Z,16.80
2023-03-08T12:02:12.172Z,15.60
2023-03-08T12:07:32.972Z,16.47
2023-03-08T12:13:05.893Z,15.30
2023-03-08T12:18:35.999Z,14.43
2023-03-08T12:24:09.604Z,15.47
2023-03-08T12:29:22.899Z,16.10
2023-03-08T12:34:47.389Z,18.30
2023-03-08T12:40:05.864Z,14.27
2023-03-08T12:45:26.482Z,15.57
2023-03-08T12:50:37.215Z,16.20
2023-03-08T12:55:45.769Z,14.67
2023-03-08T13:00:59.589Z,17.37
2023-03-08T13:11:24.598Z,13.68
2023-03-08T13:16:41.879Z,14.17
2023-03-08T13:22:02.278Z,15.13
2023-03-08T13:27:37.142Z,12.50
2023-03-08T13:38:02.545Z,9.10
2023-03-08T13:43:11.056Z,11.43
2023-03-08T13:48:19.551Z,9.97
2023-03-08T13:53:34.346Z,11.00
2023-03-08T13:58:46.182Z,10.37
2023-03-08T14:03:55.929Z,10.90
2023-03-08T14:09:06.185Z,12.67
2023-03-08T14:14:25.915Z,8.50
2023-03-08T14:19:39.832Z,7.27
2023-03-08T14:30:04.884Z,8.75
2023-03-08T14:35:27.623Z,9.20
2023-03-08T14:40:37.472Z,7.83
2023-03-08T14:45:59.176Z,6.77
2023-03-08T14:51:21.913Z,9.13
2023-03-08T14:56:30.918Z,8.07
2023-03-08T15:01:39.027Z,6.03
2023-03-08T15:06:46.521Z,7.60
2023-03-08T15:11:56.490Z,7.80
2023-03-08T15:17:03.587Z,7.40
2023-03-08T15:22:13.728Z,6.70
2023-03-08T15:27:20.724Z,7.47
2023-03-08T15:32:27.731Z,7.27
2023-03-08T15:37:34.477Z,7.13
2023-03-08T15:42:41.303Z,7.77
2023-03-08T15:48:06.672Z,8.07
2023-03-08T15:53:23.276Z,6.40
2023-03-08T15:58:23.154Z,5.93
2023-03-08T16:03:31.474Z,9.17
2023-03-08T16:08:38.639Z,5.90
2023-03-08T16:13:46.070Z,6.50
2023-03-08T16:18:52.739Z,6.43
2023-03-08T16:24:01.108Z,5.63
2023-03-08T16:29:07.821Z,6.70
2023-03-08T16:34:14.790Z,6.73
2023-03-08T16:39:21.635Z,5.50
2023-03-08T16:44:30.809Z,4.63
2023-03-08T16:49:38.870Z,5.63
2023-03-08T16:54:46.333Z,6.67
2023-03-08T16:59:53.273Z,6.60
2023-03-08T17:05:00.123Z,142.43
2023-03-08T17:10:08.364Z,139.73
2023-03-08T17:15:15.134Z,326.13
2023-03-08T17:20:22.153Z,472.03
2023-03-08T17:25:29.275Z,86.47
2023-03-08T17:30:36.307Z,27.43
2023-03-08T17:35:45.063Z,102.83
2023-03-08T17:40:52.794Z,60.77
2023-03-08T17:46:02.426Z,13.97
2023-03-08T17:51:13.822Z,15.17
2023-03-08T17:56:25.631Z,12.10
2023-03-08T18:01:33.992Z,8.13
2023-03-08T18:06:44.038Z,7.47
2023-03-08T18:11:51.455Z,75.63
2023-03-08T18:16:58.184Z,59.60
2023-03-08T18:22:06.032Z,11.37
2023-03-08T18:27:12.919Z,14.37
2023-03-08T18:32:20.271Z,13.83
2023-03-08T18:37:27.209Z,27.63
2023-03-08T18:42:34.634Z,14.80
2023-03-08T18:47:41.902Z,12.00
2023-03-08T18:58:12.840Z,163.60
2023-03-08T19:03:20.439Z,18.33
2023-03-08T19:08:27.534Z,24.43
2023-03-08T19:13:34.629Z,11.00
2023-03-08T19:18:41.585Z,7.47
2023-03-08T19:23:49.309Z,81.13
2023-03-08T19:28:56.016Z,31.30
2023-03-08T19:34:03.103Z,14.17
2023-03-08T19:39:13.806Z,8.30
2023-03-08T19:44:22.160Z,8.67
2023-03-08T19:49:32.654Z,6.13
2023-03-08T19:54:39.672Z,6.20
2023-03-08T19:59:46.577Z,5.90
2023-03-08T20:04:53.811Z,6.97
2023-03-08T20:10:10.532Z,5.87
2023-03-08T20:15:09.962Z,5.80
2023-03-08T20:20:16.881Z,10.10
2023-03-08T20:25:23.864Z,7.63
2023-03-08T20:30:31.148Z,8.37
2023-03-08T20:35:38.008Z,8.43
2023-03-08T20:40:44.850Z,6.67
2023-03-08T20:45:52.223Z,9.73
2023-03-08T20:51:03.508Z,7.40
2023-03-08T20:56:14.340Z,6.73
2023-03-08T21:01:28.837Z,6.20
2023-03-08T21:06:35.753Z,5.43
2023-03-08T21:11:43.311Z,7.90
2023-03-08T21:16:51.039Z,5.97
2023-03-08T21:21:57.821Z,5.53
2023-03-08T21:27:05.111Z,6.57
2023-03-08T21:32:12.881Z,7.27
2023-03-08T21:37:20.075Z,7.23
2023-03-08T21:42:27.640Z,7.73
2023-03-08T21:47:34.911Z,5.33
2023-03-08T21:52:41.991Z,7.23
2023-03-08T21:57:49.772Z,5.77
2023-03-08T22:02:56.722Z,7.37
2023-03-08T22:08:03.504Z,7.73
2023-03-08T22:13:10.458Z,8.27
2023-03-08T22:18:17.562Z,6.70
2023-03-08T22:23:26.112Z,6.73
2023-03-08T22:28:33.021Z,6.50
2023-03-08T22:33:40.763Z,8.37
2023-03-08T22:38:48.166Z,8.30
2023-03-08T22:43:55.757Z,7.87
2023-03-08T22:49:04.312Z,8.10
2023-03-08T22:54:19.712Z,7.90
2023-03-08T22:59:26.586Z,9.60
2023-03-08T23:04:33.370Z,7.07
2023-03-08T23:09:40.219Z,8.40
2023-03-08T23:14:47.409Z,6.77
2023-03-08T23:19:55.254Z,6.33
2023-03-08T23:25:02.282Z,7.07
2023-03-08T23:30:12.814Z,10.07
2023-03-08T23:35:20.000Z,5.90
2023-03-08T23:40:26.764Z,7.57
2023-03-08T23:45:33.725Z,7.57
2023-03-08T23:50:43.944Z,7.17
2023-03-08T23:55:50.901Z,7.07
